createdAt,value
2018-12-02T00:00:28.198Z,1.10
2018-12-02T00:02:56.345Z,1.23
2018-12-02T00:05:24.900Z,1.20
2018-12-02T00:07:52.989Z,1.17
2018-12-02T00:10:21.658Z,1.07
2018-12-02T00:12:49.993Z,1.00
2018-12-02T00:15:23.171Z,1.00
2018-12-02T00:17:52.448Z,1.10
2018-12-02T00:20:20.649Z,1.10
2018-12-02T00:22:49.100Z,1.10
2018-12-02T00:25:17.218Z,1.10
2018-12-02T00:27:49.423Z,0.93
2018-12-02T00:30:20.175Z,1.13
2018-12-02T00:32:48.311Z,1.10
2018-12-02T00:35:17.236Z,1.10
2018-12-02T00:37:46.412Z,1.40
2018-12-02T00:40:16.662Z,1.07
2018-12-02T00:42:46.953Z,1.10
2018-12-02T00:45:16.282Z,1.17
2018-12-02T00:47:44.377Z,1.10
2018-12-02T00:50:13.446Z,1.30
2018-12-02T00:52:42.460Z,1.10
2018-12-02T00:55:11.844Z,1.47
2018-12-02T00:57:40.045Z,1.20
2018-12-02T01:00:09.802Z,1.00
2018-12-02T01:02:37.897Z,0.90
2018-12-02T01:05:08.053Z,0.90
2018-12-02T01:07:36.169Z,1.20
2018-12-02T01:10:04.645Z,1.20
2018-12-02T01:12:32.782Z,1.30
2018-12-02T01:15:00.866Z,1.30
2018-12-02T01:17:28.939Z,1.20
2018-12-02T01:19:57.087Z,1.07
2018-12-02T01:22:25.405Z,1.20
2018-12-02T01:24:53.505Z,1.20
2018-12-02T01:27:21.692Z,1.40
2018-12-02T01:29:49.769Z,1.43
2018-12-02T01:32:17.847Z,1.40
2018-12-02T01:34:45.913Z,1.70
2018-12-02T01:37:13.996Z,1.30
2018-12-02T01:39:42.385Z,1.53
2018-12-02T01:42:10.497Z,1.30
2018-12-02T01:44:38.572Z,1.70
2018-12-02T01:47:06.707Z,1.77
2018-12-02T01:49:34.796Z,1.63
2018-12-02T01:52:02.880Z,1.60
2018-12-02T01:54:31.026Z,1.80
2018-12-02T01:56:59.167Z,1.83
2018-12-02T01:59:27.560Z,2.30
2018-12-02T02:01:55.672Z,1.67
2018-12-02T02:04:23.783Z,1.80
2018-12-02T02:06:51.863Z,1.50
2018-12-02T02:09:19.948Z,1.40
2018-12-02T02:11:48.020Z,1.70
2018-12-02T02:14:16.100Z,1.50
2018-12-02T02:16:44.187Z,1.70
2018-12-02T02:19:12.308Z,1.57
2018-12-02T02:21:40.408Z,1.53
2018-12-02T02:24:08.512Z,2.00
2018-12-02T02:26:36.605Z,1.73
2018-12-02T02:29:05.257Z,1.97
2018-12-02T02:31:33.317Z,1.60
2018-12-02T02:34:01.388Z,1.60
2018-12-02T02:36:29.474Z,1.73
2018-12-02T02:38:57.563Z,2.00
2018-12-02T02:41:25.675Z,1.50
2018-12-02T02:43:53.747Z,1.57
2018-12-02T02:46:21.818Z,1.50
2018-12-02T02:48:50.130Z,1.60
2018-12-02T02:51:18.201Z,1.70
2018-12-02T02:53:46.260Z,1.60
2018-12-02T02:56:14.341Z,1.60
2018-12-02T02:58:42.449Z,1.50
2018-12-02T03:01:10.556Z,1.40
2018-12-02T03:03:38.625Z,1.90
2018-12-02T03:06:06.713Z,1.90
2018-12-02T03:08:34.821Z,1.70
2018-12-02T03:11:02.977Z,2.00
2018-12-02T03:13:31.071Z,2.07
2018-12-02T03:15:59.225Z,2.23
2018-12-02T03:18:27.362Z,1.87
2018-12-02T03:20:55.475Z,2.07
2018-12-02T03:23:23.602Z,2.00
2018-12-02T03:25:51.685Z,1.93
2018-12-02T03:28:19.787Z,2.10
2018-12-02T03:30:47.883Z,2.23
2018-12-02T03:33:16.010Z,1.80
2018-12-02T03:35:44.411Z,1.90
2018-12-02T03:38:12.477Z,1.60
2018-12-02T03:40:40.551Z,2.10
2018-12-02T03:43:08.700Z,1.90
2018-12-02T03:45:36.798Z,1.43
2018-12-02T03:48:05.268Z,1.50
2018-12-02T03:50:33.341Z,1.53
2018-12-02T03:53:01.414Z,1.20
2018-12-02T03:55:29.494Z,1.50
2018-12-02T03:57:57.589Z,1.13
2018-12-02T04:00:26.168Z,1.20
2018-12-02T04:02:55.216Z,1.07
2018-12-02T04:05:25.821Z,1.17
2018-12-02T04:07:54.070Z,1.10
2018-12-02T04:10:22.230Z,1.40
2018-12-02T04:12:51.104Z,1.40
2018-12-02T04:15:20.205Z,1.40
2018-12-02T04:17:48.284Z,1.47
2018-12-02T04:20:17.479Z,1.57
2018-12-02T04:22:46.423Z,1.17
2018-12-02T04:25:16.436Z,1.50
2018-12-02T04:27:44.509Z,1.40
2018-12-02T04:30:16.078Z,1.40
2018-12-02T04:32:44.692Z,1.50
2018-12-02T04:35:21.421Z,1.43
2018-12-02T04:37:49.552Z,1.23
2018-12-02T04:40:17.624Z,1.40
2018-12-02T04:42:45.701Z,1.60
2018-12-02T04:45:15.814Z,1.50
2018-12-02T04:47:43.937Z,1.37
2018-12-02T04:50:18.215Z,1.80
2018-12-02T04:52:46.345Z,1.43
2018-12-02T04:55:14.348Z,1.37
2018-12-02T04:57:42.444Z,1.47
2018-12-02T05:00:12.581Z,1.53
2018-12-02T05:02:40.774Z,1.60
2018-12-02T05:05:11.026Z,1.87
2018-12-02T05:07:39.713Z,1.70
2018-12-02T05:10:10.328Z,1.47
2018-12-02T05:12:38.917Z,1.60
2018-12-02T05:15:08.538Z,1.40
2018-12-02T05:17:36.949Z,1.80
2018-12-02T05:20:08.897Z,1.60
2018-12-02T05:22:36.994Z,1.70
2018-12-02T05:25:06.162Z,1.70
2018-12-02T05:27:34.285Z,1.53
2018-12-02T05:30:02.405Z,1.30
2018-12-02T05:32:30.481Z,1.80
2018-12-02T05:34:58.556Z,1.60
2018-12-02T05:37:26.640Z,1.60
2018-12-02T05:39:54.766Z,1.60
2018-12-02T05:42:28.168Z,1.57
2018-12-02T05:44:56.564Z,2.03
2018-12-02T05:47:24.641Z,1.63
2018-12-02T05:49:52.725Z,1.63
2018-12-02T05:52:20.818Z,1.33
2018-12-02T05:54:48.910Z,1.60
2018-12-02T05:57:17.248Z,1.50
2018-12-02T05:59:45.326Z,1.50
2018-12-02T06:02:13.420Z,1.63
2018-12-02T06:04:41.521Z,1.30
2018-12-02T06:07:09.637Z,1.50
2018-12-02T06:09:37.989Z,1.40
2018-12-02T06:12:06.120Z,1.70
2018-12-02T06:14:34.218Z,1.50
2018-12-02T06:17:02.306Z,1.40
2018-12-02T06:19:30.396Z,1.33
2018-12-02T06:21:58.493Z,1.20
2018-12-02T06:24:26.589Z,1.57
2018-12-02T06:26:54.722Z,1.40
2018-12-02T06:29:22.838Z,1.60
2018-12-02T06:31:50.989Z,1.20
2018-12-02T06:34:19.103Z,1.27
2018-12-02T06:36:47.228Z,1.00
2018-12-02T06:39:15.323Z,1.30
2018-12-02T06:41:43.387Z,1.13
2018-12-02T06:44:11.493Z,1.27
2018-12-02T06:46:39.595Z,1.37
2018-12-02T06:49:07.720Z,1.40
2018-12-02T06:51:35.823Z,1.30
2018-12-02T06:54:03.904Z,1.23
2018-12-02T06:56:41.420Z,1.30
2018-12-02T06:59:24.713Z,1.33
2018-12-02T07:02:32.914Z,1.90
2018-12-02T07:05:00.986Z,1.70
2018-12-02T07:07:29.088Z,1.80
2018-12-02T07:09:57.192Z,1.73
2018-12-02T07:12:25.277Z,1.47
2018-12-02T07:14:53.392Z,1.80
2018-12-02T07:17:23.423Z,1.87
2018-12-02T07:19:55.077Z,1.90
2018-12-02T07:22:28.672Z,2.20
2018-12-02T07:25:01.198Z,2.27
2018-12-02T07:27:29.270Z,2.90
2018-12-02T07:29:57.341Z,2.50
2018-12-02T07:32:25.467Z,2.90
2018-12-02T07:34:53.542Z,3.30
2018-12-02T07:37:23.228Z,3.33
2018-12-02T07:40:55.473Z,3.60
2018-12-02T07:43:23.572Z,4.17
2018-12-02T07:45:51.643Z,4.77
2018-12-02T07:48:19.754Z,4.70
2018-12-02T07:50:47.841Z,4.37
2018-12-02T07:53:15.917Z,5.10
2018-12-02T07:55:44.356Z,4.90
2018-12-02T07:58:16.237Z,5.50
2018-12-02T08:00:44.817Z,5.10
2018-12-02T08:03:12.957Z,5.20
2018-12-02T08:05:41.173Z,5.40
2018-12-02T08:08:09.631Z,5.20
2018-12-02T08:10:37.767Z,5.23
2018-12-02T08:13:06.393Z,5.10
2018-12-02T08:15:34.479Z,4.90
2018-12-02T08:18:02.600Z,5.40
2018-12-02T08:20:30.755Z,6.47
2018-12-02T08:22:58.876Z,5.77
2018-12-02T08:25:26.977Z,5.97
2018-12-02T08:27:55.055Z,6.00
2018-12-02T08:30:24.188Z,6.00
2018-12-02T08:32:52.424Z,5.90
2018-12-02T08:35:21.663Z,5.30
2018-12-02T08:37:51.581Z,5.07
2018-12-02T08:40:19.770Z,4.60
2018-12-02T08:42:47.833Z,5.17
2018-12-02T08:45:16.899Z,4.20
2018-12-02T08:47:45.190Z,3.90
2018-12-02T08:50:19.134Z,4.50
2018-12-02T08:52:48.498Z,4.43
2018-12-02T08:55:17.657Z,3.73
2018-12-02T08:57:46.072Z,4.27
2018-12-02T09:00:18.080Z,3.90
2018-12-02T09:02:50.640Z,4.23
2018-12-02T09:05:18.730Z,4.17
2018-12-02T09:07:46.868Z,4.07
2018-12-02T09:10:16.287Z,3.60
2018-12-02T09:12:44.480Z,3.10
2018-12-02T09:15:12.842Z,3.23
2018-12-02T09:17:40.915Z,3.40
2018-12-02T09:20:12.740Z,3.47
2018-12-02T09:22:40.822Z,2.97
2018-12-02T09:25:09.005Z,3.00
2018-12-02T09:27:37.077Z,3.13
2018-12-02T09:30:11.133Z,2.70
2018-12-02T09:32:39.439Z,2.77
2018-12-02T09:35:08.464Z,3.17
2018-12-02T09:37:36.601Z,3.30
2018-12-02T09:40:07.891Z,3.17
2018-12-02T09:42:35.977Z,3.30
2018-12-02T09:45:04.536Z,3.40
2018-12-02T09:47:32.593Z,3.17
2018-12-02T09:50:00.723Z,2.93
2018-12-02T09:52:28.798Z,2.83
2018-12-02T09:54:56.906Z,2.87
2018-12-02T09:57:25.232Z,2.93
2018-12-02T09:59:53.320Z,2.60
2018-12-02T10:02:21.438Z,3.23
2018-12-02T10:04:49.485Z,3.20
2018-12-02T10:07:18.070Z,3.33
2018-12-02T10:09:46.154Z,2.40
2018-12-02T10:12:14.297Z,2.30
2018-12-02T10:14:42.359Z,2.00
2018-12-02T10:17:10.425Z,1.60
2018-12-02T10:19:38.532Z,1.40
2018-12-02T10:22:06.617Z,1.30
2018-12-02T10:24:34.693Z,1.30
2018-12-02T10:27:02.766Z,0.80
2018-12-02T10:29:30.869Z,1.10
2018-12-02T10:31:58.995Z,0.80
2018-12-02T10:34:27.080Z,0.80
2018-12-02T10:36:55.181Z,0.97
2018-12-02T10:39:23.396Z,1.23
2018-12-02T10:41:51.523Z,1.27
2018-12-02T10:44:19.608Z,1.57
2018-12-02T10:46:47.669Z,2.30
2018-12-02T10:49:15.779Z,2.10
2018-12-02T10:51:43.907Z,2.20
2018-12-02T10:54:11.953Z,2.90
2018-12-02T10:56:40.037Z,3.17
2018-12-02T10:59:08.157Z,3.50
2018-12-02T11:01:37.331Z,4.13
2018-12-02T11:04:06.521Z,3.80
2018-12-02T11:06:34.786Z,4.07
2018-12-02T11:09:03.246Z,4.00
2018-12-02T11:11:31.333Z,3.90
2018-12-02T11:13:59.577Z,4.20
2018-12-02T11:16:27.690Z,4.33
2018-12-02T11:18:55.789Z,4.10
2018-12-02T11:21:23.901Z,3.83
2018-12-02T11:23:52.019Z,4.00
2018-12-02T11:26:20.113Z,4.93
2018-12-02T11:28:48.197Z,4.63
2018-12-02T11:31:16.286Z,4.37
2018-12-02T11:33:44.389Z,3.97
2018-12-02T11:36:12.472Z,4.50
2018-12-02T11:38:40.834Z,4.67
2018-12-02T11:41:08.948Z,3.87
2018-12-02T11:43:37.013Z,4.50
2018-12-02T11:46:05.346Z,3.93
2018-12-02T11:48:33.433Z,3.90
2018-12-02T11:51:01.564Z,3.77
2018-12-02T11:53:29.616Z,3.50
2018-12-02T11:55:57.705Z,3.80
2018-12-02T11:58:25.825Z,3.53
2018-12-02T12:00:53.950Z,3.40
2018-12-02T12:03:21.994Z,3.00
2018-12-02T12:05:50.069Z,2.40
2018-12-02T12:08:18.149Z,3.40
2018-12-02T12:10:46.279Z,3.13
2018-12-02T12:13:14.408Z,3.10
2018-12-02T12:15:42.503Z,3.27
2018-12-02T12:18:10.621Z,3.10
2018-12-02T12:20:40.111Z,2.40
2018-12-02T12:23:09.693Z,2.07
2018-12-02T12:25:37.892Z,1.90
2018-12-02T12:28:07.383Z,2.57
2018-12-02T12:30:35.965Z,2.10
2018-12-02T12:33:04.345Z,2.40
2018-12-02T12:35:32.427Z,2.37
2018-12-02T12:38:00.568Z,3.10
2018-12-02T12:40:31.386Z,2.63
2018-12-02T12:43:18.184Z,2.27
2018-12-02T12:45:46.286Z,2.60
2018-12-02T12:48:14.418Z,3.30
2018-12-02T12:50:42.591Z,4.10
2018-12-02T12:53:10.702Z,3.93
2018-12-02T12:55:38.803Z,4.07
2018-12-02T12:58:07.928Z,3.67
2018-12-02T13:00:36.166Z,3.20
2018-12-02T13:03:04.290Z,3.10
2018-12-02T13:05:32.365Z,3.60
2018-12-02T13:08:00.435Z,3.67
2018-12-02T13:10:28.559Z,4.13
2018-12-02T13:12:56.651Z,3.80
2018-12-02T13:15:24.810Z,3.87
2018-12-02T13:17:57.072Z,2.83
2018-12-02T13:20:26.576Z,3.40
2018-12-02T13:22:54.669Z,3.20
2018-12-02T13:25:22.766Z,4.13
2018-12-02T13:27:50.889Z,3.00
2018-12-02T13:30:19.789Z,2.50
2018-12-02T13:32:49.813Z,2.77
2018-12-02T13:35:18.042Z,2.50
2018-12-02T13:37:46.159Z,3.10
2018-12-02T13:40:16.235Z,2.57
2018-12-02T13:42:47.496Z,2.80
2018-12-02T13:45:17.090Z,2.87
2018-12-02T13:47:45.205Z,3.87
2018-12-02T13:50:15.348Z,2.97
2018-12-02T13:52:43.453Z,3.70
2018-12-02T13:55:15.162Z,4.13
2018-12-02T13:57:43.296Z,3.73
2018-12-02T14:00:19.301Z,3.47
2018-12-02T14:02:50.731Z,3.50
2018-12-02T14:05:19.162Z,3.27
2018-12-02T14:07:47.238Z,2.43
2018-12-02T14:10:15.613Z,2.53
2018-12-02T14:12:46.304Z,2.60
2018-12-02T14:15:34.905Z,2.83
2018-12-02T14:18:11.529Z,3.07
2018-12-02T14:20:39.648Z,3.73
2018-12-02T14:23:08.009Z,3.40
2018-12-02T14:25:36.089Z,3.70
2018-12-02T14:28:04.165Z,4.03
2018-12-02T14:30:32.254Z,2.30
2018-12-02T14:33:00.302Z,2.37
2018-12-02T14:35:28.673Z,2.40
2018-12-02T14:37:56.748Z,2.33
2018-12-02T14:40:24.837Z,2.70
2018-12-02T14:42:52.889Z,1.83
2018-12-02T14:45:21.012Z,2.67
2018-12-02T14:47:49.084Z,1.93
2018-12-02T14:50:17.701Z,2.20
2018-12-02T14:52:47.904Z,2.13
2018-12-02T14:55:18.138Z,2.33
2018-12-02T14:57:46.229Z,1.53
2018-12-02T15:00:15.538Z,1.50
2018-12-02T15:02:43.594Z,1.80
2018-12-02T15:05:12.467Z,1.90
2018-12-02T15:07:40.994Z,1.43
2018-12-02T15:10:17.965Z,2.03
2018-12-02T15:12:47.574Z,1.80
2018-12-02T15:15:16.565Z,1.37
2018-12-02T15:17:45.752Z,1.77
2018-12-02T15:20:15.157Z,1.53
2018-12-02T15:22:43.304Z,1.27
2018-12-02T15:25:13.033Z,1.47
2018-12-02T15:27:41.563Z,1.40
2018-12-02T15:30:14.721Z,1.20
2018-12-02T15:32:44.221Z,1.20
2018-12-02T15:35:12.329Z,1.20
2018-12-02T15:37:40.417Z,1.50
2018-12-02T15:40:16.445Z,1.47
2018-12-02T15:42:47.166Z,1.37
2018-12-02T15:45:15.555Z,1.20
2018-12-02T15:47:43.629Z,1.10
2018-12-02T15:50:13.800Z,1.30
2018-12-02T15:52:41.887Z,1.00
2018-12-02T15:55:13.649Z,1.50
2018-12-02T15:57:41.743Z,1.47
2018-12-02T16:00:43.676Z,1.40
2018-12-02T16:03:11.747Z,1.43
2018-12-02T16:05:40.153Z,1.30
2018-12-02T16:08:08.511Z,1.27
2018-12-02T16:10:36.721Z,1.40
2018-12-02T16:13:06.454Z,1.43
2018-12-02T16:15:34.994Z,1.20
2018-12-02T16:18:03.737Z,1.43
2018-12-02T16:20:42.581Z,1.63
2018-12-02T16:23:10.764Z,1.30
2018-12-02T16:25:38.842Z,1.20
2018-12-02T16:28:06.908Z,1.30
2018-12-02T16:30:34.990Z,1.00
2018-12-02T16:33:03.055Z,1.33
2018-12-02T16:35:31.148Z,1.50
2018-12-02T16:37:59.206Z,1.07
2018-12-02T16:40:27.292Z,1.37
2018-12-02T16:42:56.605Z,1.10
2018-12-02T16:45:24.688Z,1.10
2018-12-02T16:47:55.041Z,1.00
2018-12-02T16:50:34.200Z,1.40
2018-12-02T16:53:07.893Z,1.33
2018-12-02T16:55:40.209Z,1.07
2018-12-02T16:58:22.716Z,1.10
2018-12-02T17:00:54.553Z,1.20
2018-12-02T17:03:22.677Z,1.17
2018-12-02T17:05:50.976Z,1.37
2018-12-02T17:08:19.156Z,1.10
2018-12-02T17:10:50.581Z,1.60
2018-12-02T17:13:15.340Z,1.37
2018-12-02T17:15:43.397Z,1.70
2018-12-02T17:18:11.489Z,2.00
2018-12-02T17:20:39.586Z,1.53
2018-12-02T17:23:07.661Z,1.70
2018-12-02T17:25:35.739Z,1.47
2018-12-02T17:28:03.800Z,1.47
2018-12-02T17:30:39.997Z,2.67
2018-12-02T17:33:08.345Z,1.80
2018-12-02T17:35:36.404Z,1.80
2018-12-02T17:38:04.727Z,2.00
2018-12-02T17:40:32.803Z,1.63
2018-12-02T17:43:01.213Z,2.00
2018-12-02T17:45:29.299Z,2.23
2018-12-02T17:47:57.365Z,1.50
2018-12-02T17:50:25.443Z,2.03
2018-12-02T17:52:53.513Z,2.07
2018-12-02T17:55:21.606Z,1.57
2018-12-02T17:57:49.664Z,2.03
2018-12-02T18:00:27.749Z,2.33
2018-12-02T18:02:58.323Z,2.20
2018-12-02T18:05:28.580Z,2.33
2018-12-02T18:07:56.682Z,2.07
2018-12-02T18:10:24.752Z,2.57
2018-12-02T18:12:52.825Z,2.30
2018-12-02T18:15:20.929Z,2.37
2018-12-02T18:17:49.079Z,2.90
2018-12-02T18:20:18.038Z,2.40
2018-12-02T18:22:46.361Z,2.27
2018-12-02T18:25:16.381Z,2.70
2018-12-02T18:27:44.911Z,1.83
2018-12-02T18:30:16.037Z,2.10
2018-12-02T18:32:44.276Z,2.40
2018-12-02T18:35:19.929Z,2.23
2018-12-02T18:37:48.276Z,2.10
2018-12-02T18:40:16.364Z,2.00
2018-12-02T18:42:44.677Z,1.93
2018-12-02T18:45:12.761Z,1.80
2018-12-02T18:47:40.858Z,2.17
2018-12-02T18:50:10.941Z,2.27
2018-12-02T18:52:39.076Z,1.67
2018-12-02T18:55:09.601Z,2.10
2018-12-02T18:57:37.757Z,1.90
2018-12-02T19:00:15.893Z,2.37
2018-12-02T19:02:44.003Z,1.77
2018-12-02T19:05:12.179Z,2.13
2018-12-02T19:07:40.261Z,1.70
2018-12-02T19:10:11.396Z,1.40
2018-12-02T19:12:39.472Z,1.90
2018-12-02T19:15:11.233Z,1.90
2018-12-02T19:17:39.673Z,1.73
2018-12-02T19:20:15.208Z,2.27
2018-12-02T19:22:43.790Z,2.33
2018-12-02T19:25:13.554Z,1.90
2018-12-02T19:27:41.676Z,2.20
2018-12-02T19:30:11.617Z,2.10
2018-12-02T19:32:39.701Z,2.53
2018-12-02T19:35:11.766Z,2.53
2018-12-02T19:37:39.903Z,2.80
2018-12-02T19:40:14.773Z,2.70
2018-12-02T19:42:42.879Z,2.27
2018-12-02T19:45:13.633Z,2.83
2018-12-02T19:47:42.064Z,2.20
2018-12-02T19:50:11.689Z,2.47
2018-12-02T19:52:39.762Z,2.53
2018-12-02T19:55:11.209Z,2.87
2018-12-02T19:57:39.751Z,2.83
2018-12-02T20:00:58.406Z,3.30
2018-12-02T20:03:25.440Z,3.20
2018-12-02T20:05:53.521Z,3.03
2018-12-02T20:08:21.620Z,3.10
2018-12-02T20:10:51.501Z,3.60
2018-12-02T20:13:20.509Z,4.27
2018-12-02T20:15:55.224Z,4.03
2018-12-02T20:18:23.372Z,3.20
2018-12-02T20:20:56.801Z,3.20
2018-12-02T20:23:31.357Z,3.17
2018-12-02T20:26:02.451Z,3.50
2018-12-02T20:28:36.053Z,2.97
2018-12-02T20:31:09.609Z,3.33
2018-12-02T20:33:37.702Z,2.83
2018-12-02T20:36:06.514Z,2.83
2018-12-02T20:38:34.586Z,3.03
2018-12-02T20:41:02.661Z,2.90
2018-12-02T20:43:31.096Z,3.53
2018-12-02T20:45:59.205Z,3.20
2018-12-02T20:48:27.315Z,2.50
2018-12-02T20:50:55.481Z,2.87
2018-12-02T20:53:23.565Z,3.93
2018-12-02T20:55:51.651Z,2.20
2018-12-02T20:58:19.747Z,2.70
2018-12-02T21:00:47.793Z,2.40
2018-12-02T21:03:19.870Z,2.80
2018-12-02T21:05:56.941Z,2.70
2018-12-02T21:08:25.308Z,2.67
2018-12-02T21:10:53.373Z,2.97
2018-12-02T21:13:21.480Z,2.63
2018-12-02T21:15:49.605Z,2.60
2018-12-02T21:18:17.686Z,2.83
2018-12-02T21:20:45.783Z,2.87
2018-12-02T21:23:13.865Z,3.33
2018-12-02T21:25:41.962Z,3.27
2018-12-02T21:28:10.998Z,2.67
2018-12-02T21:30:39.080Z,3.10
2018-12-02T21:33:07.416Z,2.53
2018-12-02T21:35:35.506Z,2.40
2018-12-02T21:38:03.596Z,2.80
2018-12-02T21:40:31.674Z,3.07
2018-12-02T21:42:59.778Z,2.60
2018-12-02T21:45:27.869Z,2.93
2018-12-02T21:47:56.400Z,2.67
2018-12-02T21:50:25.790Z,2.87
2018-12-02T21:52:54.257Z,2.97
2018-12-02T21:55:22.333Z,3.90
2018-12-02T21:57:51.047Z,3.47
2018-12-02T22:00:24.465Z,4.00
2018-12-02T22:02:53.176Z,4.60
2018-12-02T22:05:21.267Z,4.83
2018-12-02T22:07:50.066Z,4.43
2018-12-02T22:10:22.526Z,5.07
2018-12-02T22:12:50.657Z,5.13
2018-12-02T22:15:19.012Z,5.80
2018-12-02T22:17:47.117Z,5.33
2018-12-02T22:20:16.098Z,5.50
2018-12-02T22:22:44.221Z,5.30
2018-12-02T22:25:16.370Z,5.50
2018-12-02T22:27:45.717Z,4.53
2018-12-02T22:30:15.631Z,5.50
2018-12-02T22:32:43.787Z,4.17
2018-12-02T22:35:12.816Z,5.00
2018-12-02T22:37:40.886Z,5.20
2018-12-02T22:40:25.225Z,5.07
2018-12-02T22:42:54.293Z,4.70
2018-12-02T22:45:23.483Z,5.17
2018-12-02T22:47:52.378Z,5.10
2018-12-02T22:50:21.616Z,5.10
2018-12-02T22:52:50.885Z,5.20
2018-12-02T22:55:19.908Z,5.23
2018-12-02T22:57:48.111Z,5.00
2018-12-02T23:00:37.085Z,6.13
2018-12-02T23:03:13.237Z,4.83
2018-12-02T23:05:42.413Z,5.60
2018-12-02T23:08:10.500Z,4.80
2018-12-02T23:10:38.910Z,4.70
2018-12-02T23:13:08.140Z,3.50
2018-12-02T23:15:36.839Z,3.87
2018-12-02T23:18:05.992Z,4.13
2018-12-02T23:20:34.167Z,4.23
2018-12-02T23:23:02.221Z,4.03
2018-12-02T23:25:30.290Z,2.97
2018-12-02T23:27:58.381Z,3.00
2018-12-02T23:30:26.936Z,4.20
2018-12-02T23:32:55.008Z,2.20
2018-12-02T23:35:23.085Z,2.77
2018-12-02T23:37:51.319Z,2.43
2018-12-02T23:40:21.233Z,2.60
2018-12-02T23:42:49.325Z,1.90
2018-12-02T23:45:17.709Z,1.93
2018-12-02T23:47:45.773Z,2.83
2018-12-02T23:50:16.988Z,2.10
2018-12-02T23:52:45.178Z,2.63
2018-12-02T23:55:14.358Z,2.27
2018-12-02T23:57:42.440Z,2.30
